Ana Sayfa
METAR-TAF:

METAR-TAF

Havaalanları :

Kupang, Endonezya

Enlem: 10-10-17S, Boylam: 123-40-16E, yükseklik: 102 m

Güncel hava durumu gözlemi

Rapor saat 08:00 UTC de 1 saat ve 15 dakika önce yapıldı.
Rüzgar değişken yönden 4 kt
Sıcaklık 30°C
Nem 55%
Basınç 1011 hPa
Görüş mesafesi 10 km veya daha fazla
2000 ft yükseklikte az bulutlu

METAR: WATT 180800Z VRB04KT 9999 FEW020 30/20 Q1011 NOSIG

Saat: 16:15 (09:15 UTC)

Tahmin

Rapor saat 05:00 UTC de 4 saat ve 15 dakika önce yapıldı.
Ayın 18'si saat 06 UTC'den ayın 19'si saat 06 UTC'ye kadar geçerli Tahmin
Rüzgar doğudan 15 kt ve 23 kt'a kadar ani rüzgarlar
Görüş mesafesi 10 km veya daha fazla
1800 ft yükseklikte az bulutlu
Dönüşüyor
ayın 18'si saat 11 UTC'den ayın 18'si saat 13 UTC'ye kadar
Rüzgar doğudan 10 kt

TAF: WATT 180500Z 1806/1906 10015G23KT 9999 FEW018 BECMG 1811/1813 10010KT

4.000'den fazla havaalanı için hava durumu gözlemleri ve tahminleri (METAR ve TAF raporları).

Kullanılabilir istasyonlar harita üzerinde sarı ve kırmızı noktalarla gösterilir.

İstasyonun adını görmek için fareyi noktanın üzerinde gezdirin.

Sonrasında hava gözlem ve tahminlerini görmek için tıklayın.

Haritayı değiştirmek için: yaklaştırmak için siyah artı işaretli yeşil düğmeye ve uzaklaştırmak için de eksi işaretli düğmeye hızla tıklayın; bitişik haritalar için yeşil okları kullanın.


METAR-TAF: